sensor_id;sensor_type;location;lat;lon;timestamp;P1;durP1;ratioP1;P2;durP2;ratioP2
56943;SDS011;42848;42.524;12.052;2022-12-11T00:00:10;2.90;;;1.25;;
56943;SDS011;42848;42.524;12.052;2022-12-11T00:02:36;1.70;;;1.10;;
56943;SDS011;42848;42.524;12.052;2022-12-11T00:05:02;2.83;;;1.10;;
56943;SDS011;42848;42.524;12.052;2022-12-11T00:07:28;1.92;;;0.93;;
56943;SDS011;42848;42.524;12.052;2022-12-11T00:09:53;2.45;;;1.20;;
56943;SDS011;42848;42.524;12.052;2022-12-11T00:12:19;3.13;;;1.17;;
56943;SDS011;42848;42.524;12.052;2022-12-11T00:14:45;2.85;;;1.30;;
56943;SDS011;42848;42.524;12.052;2022-12-11T00:17:10;2.55;;;1.38;;
56943;SDS011;42848;42.524;12.052;2022-12-11T00:19:36;2.55;;;1.17;;
56943;SDS011;42848;42.524;12.052;2022-12-11T00:22:02;3.75;;;1.40;;
56943;SDS011;42848;42.524;12.052;2022-12-11T00:24:27;2.80;;;1.30;;
56943;SDS011;42848;42.524;12.052;2022-12-11T00:26:53;1.90;;;1.10;;
56943;SDS011;42848;42.524;12.052;2022-12-11T00:29:18;4.85;;;1.50;;
56943;SDS011;42848;42.524;12.052;2022-12-11T00:31:44;3.85;;;1.80;;
56943;SDS011;42848;42.524;12.052;2022-12-11T00:34:10;2.35;;;1.02;;
56943;SDS011;42848;42.524;12.052;2022-12-11T00:36:38;2.78;;;1.40;;
56943;SDS011;42848;42.524;12.052;2022-12-11T00:39:04;3.78;;;1.27;;
56943;SDS011;42848;42.524;12.052;2022-12-11T00:41:30;3.17;;;1.30;;
56943;SDS011;42848;42.524;12.052;2022-12-11T00:43:56;3.78;;;1.90;;
56943;SDS011;42848;42.524;12.052;2022-12-11T00:46:22;2.80;;;1.10;;
56943;SDS011;42848;42.524;12.052;2022-12-11T00:48:48;3.15;;;1.20;;
56943;SDS011;42848;42.524;12.052;2022-12-11T00:51:14;2.72;;;1.20;;
56943;SDS011;42848;42.524;12.052;2022-12-11T00:53:41;3.58;;;1.20;;
56943;SDS011;42848;42.524;12.052;2022-12-11T00:56:08;3.55;;;1.58;;
56943;SDS011;42848;42.524;12.052;2022-12-11T00:58:38;1.95;;;1.10;;
56943;SDS011;42848;42.524;12.052;2022-12-11T01:01:14;4.15;;;2.15;;
56943;SDS011;42848;42.524;12.052;2022-12-11T01:03:42;3.38;;;1.70;;
56943;SDS011;42848;42.524;12.052;2022-12-11T01:06:10;2.85;;;1.30;;
56943;SDS011;42848;42.524;12.052;2022-12-11T01:08:38;2.20;;;1.30;;
56943;SDS011;42848;42.524;12.052;2022-12-11T01:11:04;3.60;;;1.25;;
56943;SDS011;42848;42.524;12.052;2022-12-11T01:13:34;2.67;;;1.20;;
56943;SDS011;42848;42.524;12.052;2022-12-11T01:16:05;2.88;;;1.20;;
56943;SDS011;42848;42.524;12.052;2022-12-11T01:18:32;3.20;;;1.27;;
56943;SDS011;42848;42.524;12.052;2022-12-11T01:20:58;4.10;;;1.20;;
56943;SDS011;42848;42.524;12.052;2022-12-11T01:23:23;3.22;;;1.30;;
56943;SDS011;42848;42.524;12.052;2022-12-11T01:25:49;2.80;;;1.20;;
56943;SDS011;42848;42.524;12.052;2022-12-11T01:28:14;2.30;;;1.20;;
56943;SDS011;42848;42.524;12.052;2022-12-11T01:30:41;3.47;;;1.33;;
56943;SDS011;42848;42.524;12.052;2022-12-11T01:33:08;2.45;;;1.15;;
56943;SDS011;42848;42.524;12.052;2022-12-11T01:35:34;3.17;;;1.00;;
56943;SDS011;42848;42.524;12.052;2022-12-11T01:38:00;3.30;;;1.48;;
56943;SDS011;42848;42.524;12.052;2022-12-11T01:40:26;1.83;;;1.13;;
56943;SDS011;42848;42.524;12.052;2022-12-11T01:42:52;3.80;;;1.20;;
56943;SDS011;42848;42.524;12.052;2022-12-11T01:47:49;2.10;;;1.20;;
56943;SDS011;42848;42.524;12.052;2022-12-11T01:50:20;2.03;;;1.02;;
56943;SDS011;42848;42.524;12.052;2022-12-11T01:52:45;3.35;;;1.23;;
56943;SDS011;42848;42.524;12.052;2022-12-11T01:55:14;3.65;;;1.20;;
56943;SDS011;42848;42.524;12.052;2022-12-11T01:57:42;1.92;;;1.00;;
56943;SDS011;42848;42.524;12.052;2022-12-11T02:00:11;2.90;;;1.20;;
56943;SDS011;42848;42.524;12.052;2022-12-11T02:02:37;3.35;;;1.17;;
56943;SDS011;42848;42.524;12.052;2022-12-11T02:05:04;2.35;;;1.00;;
56943;SDS011;42848;42.524;12.052;2022-12-11T02:07:34;3.22;;;1.27;;
56943;SDS011;42848;42.524;12.052;2022-12-11T02:10:04;2.22;;;1.10;;
56943;SDS011;42848;42.524;12.052;2022-12-11T02:12:34;1.90;;;1.10;;
56943;SDS011;42848;42.524;12.052;2022-12-11T02:28:57;5.38;;;2.55;;
56943;SDS011;42848;42.524;12.052;2022-12-11T02:31:40;4.95;;;2.38;;
56943;SDS011;42848;42.524;12.052;2022-12-11T02:34:18;5.82;;;2.60;;
56943;SDS011;42848;42.524;12.052;2022-12-11T02:36:51;5.47;;;2.35;;
56943;SDS011;42848;42.524;12.052;2022-12-11T02:39:21;3.53;;;2.20;;
56943;SDS011;42848;42.524;12.052;2022-12-11T02:41:51;4.47;;;2.30;;
56943;SDS011;42848;42.524;12.052;2022-12-11T02:44:21;3.30;;;2.00;;
56943;SDS011;42848;42.524;12.052;2022-12-11T02:46:50;3.03;;;2.00;;
56943;SDS011;42848;42.524;12.052;2022-12-11T02:49:17;3.00;;;1.90;;
56943;SDS011;42848;42.524;12.052;2022-12-11T02:51:44;3.33;;;1.90;;
56943;SDS011;42848;42.524;12.052;2022-12-11T02:54:15;3.25;;;2.00;;
56943;SDS011;42848;42.524;12.052;2022-12-11T02:56:50;3.75;;;1.73;;
56943;SDS011;42848;42.524;12.052;2022-12-11T02:59:23;3.63;;;2.08;;
56943;SDS011;42848;42.524;12.052;2022-12-11T03:01:54;3.92;;;2.30;;
56943;SDS011;42848;42.524;12.052;2022-12-11T03:04:19;3.83;;;2.30;;
56943;SDS011;42848;42.524;12.052;2022-12-11T03:06:50;4.25;;;2.25;;
56943;SDS011;42848;42.524;12.052;2022-12-11T03:09:20;4.50;;;1.92;;
56943;SDS011;42848;42.524;12.052;2022-12-11T03:11:46;3.05;;;1.80;;
56943;SDS011;42848;42.524;12.052;2022-12-11T03:14:12;3.72;;;1.92;;
56943;SDS011;42848;42.524;12.052;2022-12-11T03:16:40;3.95;;;2.20;;
56943;SDS011;42848;42.524;12.052;2022-12-11T03:19:23;3.50;;;2.00;;
56943;SDS011;42848;42.524;12.052;2022-12-11T03:30:24;5.80;;;2.22;;
56943;SDS011;42848;42.524;12.052;2022-12-11T03:32:57;4.22;;;2.25;;
56943;SDS011;42848;42.524;12.052;2022-12-11T03:35:30;3.65;;;2.42;;
56943;SDS011;42848;42.524;12.052;2022-12-11T03:38:00;2.78;;;1.92;;
56943;SDS011;42848;42.524;12.052;2022-12-11T03:40:31;3.95;;;2.13;;
56943;SDS011;42848;42.524;12.052;2022-12-11T03:42:59;3.67;;;1.80;;
56943;SDS011;42848;42.524;12.052;2022-12-11T03:45:26;3.53;;;2.20;;
56943;SDS011;42848;42.524;12.052;2022-12-11T03:47:54;4.13;;;2.10;;
56943;SDS011;42848;42.524;12.052;2022-12-11T03:50:22;2.60;;;1.75;;
56943;SDS011;42848;42.524;12.052;2022-12-11T03:52:50;4.30;;;1.80;;
56943;SDS011;42848;42.524;12.052;2022-12-11T03:55:18;4.10;;;2.00;;
56943;SDS011;42848;42.524;12.052;2022-12-11T03:57:46;4.68;;;2.03;;
56943;SDS011;42848;42.524;12.052;2022-12-11T04:00:14;5.82;;;2.10;;
56943;SDS011;42848;42.524;12.052;2022-12-11T04:02:41;3.55;;;1.80;;
56943;SDS011;42848;42.524;12.052;2022-12-11T04:05:08;3.13;;;2.00;;
56943;SDS011;42848;42.524;12.052;2022-12-11T04:07:34;2.55;;;1.80;;
56943;SDS011;42848;42.524;12.052;2022-12-11T04:10:00;3.88;;;2.10;;
56943;SDS011;42848;42.524;12.052;2022-12-11T04:12:27;3.90;;;2.30;;
56943;SDS011;42848;42.524;12.052;2022-12-11T04:14:52;4.30;;;2.10;;
56943;SDS011;42848;42.524;12.052;2022-12-11T04:17:30;2.65;;;1.90;;
56943;SDS011;42848;42.524;12.052;2022-12-11T04:20:16;2.80;;;1.95;;
56943;SDS011;42848;42.524;12.052;2022-12-11T04:23:04;3.28;;;1.90;;
56943;SDS011;42848;42.524;12.052;2022-12-11T04:25:49;3.38;;;1.98;;
56943;SDS011;42848;42.524;12.052;2022-12-11T04:28:14;3.25;;;1.98;;
56943;SDS011;42848;42.524;12.052;2022-12-11T04:30:46;3.83;;;2.00;;
56943;SDS011;42848;42.524;12.052;2022-12-11T04:33:13;3.03;;;1.63;;
56943;SDS011;42848;42.524;12.052;2022-12-11T04:35:39;3.45;;;1.80;;
56943;SDS011;42848;42.524;12.052;2022-12-11T04:38:04;4.53;;;2.10;;
56943;SDS011;42848;42.524;12.052;2022-12-11T04:40:30;3.75;;;2.00;;
56943;SDS011;42848;42.524;12.052;2022-12-11T04:42:56;4.45;;;2.10;;
56943;SDS011;42848;42.524;12.052;2022-12-11T04:45:21;3.78;;;1.70;;
56943;SDS011;42848;42.524;12.052;2022-12-11T04:47:47;2.95;;;2.00;;
56943;SDS011;42848;42.524;12.052;2022-12-11T04:50:13;2.90;;;1.80;;
56943;SDS011;42848;42.524;12.052;2022-12-11T04:52:40;4.20;;;2.00;;
56943;SDS011;42848;42.524;12.052;2022-12-11T04:55:06;4.28;;;2.08;;
56943;SDS011;42848;42.524;12.052;2022-12-11T04:57:33;2.65;;;1.80;;
56943;SDS011;42848;42.524;12.052;2022-12-11T04:59:58;2.80;;;1.80;;
56943;SDS011;42848;42.524;12.052;2022-12-11T05:02:24;2.83;;;2.00;;
56943;SDS011;42848;42.524;12.052;2022-12-11T05:04:50;3.60;;;1.50;;
56943;SDS011;42848;42.524;12.052;2022-12-11T05:07:16;2.03;;;1.35;;
56943;SDS011;42848;42.524;12.052;2022-12-11T05:09:42;2.80;;;1.40;;
56943;SDS011;42848;42.524;12.052;2022-12-11T05:12:08;6.15;;;1.50;;
56943;SDS011;42848;42.524;12.052;2022-12-11T05:14:33;3.75;;;1.58;;
56943;SDS011;42848;42.524;12.052;2022-12-11T05:16:59;4.10;;;1.67;;
56943;SDS011;42848;42.524;12.052;2022-12-11T05:19:25;3.15;;;1.60;;
56943;SDS011;42848;42.524;12.052;2022-12-11T05:21:51;4.88;;;1.88;;
56943;SDS011;42848;42.524;12.052;2022-12-11T05:24:17;4.65;;;1.90;;
56943;SDS011;42848;42.524;12.052;2022-12-11T05:26:43;3.03;;;1.90;;
56943;SDS011;42848;42.524;12.052;2022-12-11T05:29:09;5.88;;;2.15;;
56943;SDS011;42848;42.524;12.052;2022-12-11T05:31:35;4.18;;;1.70;;
56943;SDS011;42848;42.524;12.052;2022-12-11T05:34:00;5.57;;;1.70;;
56943;SDS011;42848;42.524;12.052;2022-12-11T05:36:32;2.20;;;1.50;;
56943;SDS011;42848;42.524;12.052;2022-12-11T05:38:58;3.35;;;1.90;;
56943;SDS011;42848;42.524;12.052;2022-12-11T05:41:27;3.58;;;1.75;;
56943;SDS011;42848;42.524;12.052;2022-12-11T05:43:54;3.65;;;1.60;;
56943;SDS011;42848;42.524;12.052;2022-12-11T05:46:23;2.78;;;1.83;;
56943;SDS011;42848;42.524;12.052;2022-12-11T05:48:52;3.13;;;1.90;;
56943;SDS011;42848;42.524;12.052;2022-12-11T05:51:21;3.45;;;1.95;;
56943;SDS011;42848;42.524;12.052;2022-12-11T05:53:47;4.88;;;1.92;;
56943;SDS011;42848;42.524;12.052;2022-12-11T05:56:15;7.82;;;2.15;;
56943;SDS011;42848;42.524;12.052;2022-12-11T05:58:43;3.42;;;2.00;;
56943;SDS011;42848;42.524;12.052;2022-12-11T06:01:11;4.05;;;2.00;;
56943;SDS011;42848;42.524;12.052;2022-12-11T06:03:44;4.03;;;2.22;;
56943;SDS011;42848;42.524;12.052;2022-12-11T06:06:10;5.40;;;2.70;;
56943;SDS011;42848;42.524;12.052;2022-12-11T06:08:36;3.45;;;1.73;;
56943;SDS011;42848;42.524;12.052;2022-12-11T06:11:02;3.33;;;1.90;;
56943;SDS011;42848;42.524;12.052;2022-12-11T06:13:28;3.30;;;1.77;;
56943;SDS011;42848;42.524;12.052;2022-12-11T06:15:54;4.25;;;1.90;;
56943;SDS011;42848;42.524;12.052;2022-12-11T06:18:25;4.38;;;2.60;;
56943;SDS011;42848;42.524;12.052;2022-12-11T06:20:51;3.80;;;2.15;;
56943;SDS011;42848;42.524;12.052;2022-12-11T06:23:16;3.33;;;2.13;;
56943;SDS011;42848;42.524;12.052;2022-12-11T06:25:42;3.05;;;1.90;;
56943;SDS011;42848;42.524;12.052;2022-12-11T06:28:07;3.65;;;2.30;;
56943;SDS011;42848;42.524;12.052;2022-12-11T06:30:33;3.97;;;2.00;;
56943;SDS011;42848;42.524;12.052;2022-12-11T06:32:59;4.38;;;2.30;;
56943;SDS011;42848;42.524;12.052;2022-12-11T06:35:25;5.68;;;2.55;;
56943;SDS011;42848;42.524;12.052;2022-12-11T06:37:50;3.85;;;2.63;;
56943;SDS011;42848;42.524;12.052;2022-12-11T06:40:16;5.20;;;2.70;;
56943;SDS011;42848;42.524;12.052;2022-12-11T06:42:42;4.10;;;2.80;;
56943;SDS011;42848;42.524;12.052;2022-12-11T06:45:08;4.75;;;2.72;;
56943;SDS011;42848;42.524;12.052;2022-12-11T06:47:34;3.78;;;2.40;;
56943;SDS011;42848;42.524;12.052;2022-12-11T06:49:59;4.65;;;2.50;;
56943;SDS011;42848;42.524;12.052;2022-12-11T06:52:26;8.23;;;2.50;;
56943;SDS011;42848;42.524;12.052;2022-12-11T06:54:52;3.50;;;2.30;;
56943;SDS011;42848;42.524;12.052;2022-12-11T06:57:19;3.92;;;2.20;;
56943;SDS011;42848;42.524;12.052;2022-12-11T06:59:44;4.57;;;2.15;;
56943;SDS011;42848;42.524;12.052;2022-12-11T07:02:13;4.82;;;2.10;;
56943;SDS011;42848;42.524;12.052;2022-12-11T07:04:41;3.83;;;2.05;;
56943;SDS011;42848;42.524;12.052;2022-12-11T07:07:07;3.40;;;2.03;;
56943;SDS011;42848;42.524;12.052;2022-12-11T07:09:33;4.75;;;2.00;;
56943;SDS011;42848;42.524;12.052;2022-12-11T07:12:01;6.93;;;2.50;;
56943;SDS011;42848;42.524;12.052;2022-12-11T07:14:28;3.80;;;2.20;;
56943;SDS011;42848;42.524;12.052;2022-12-11T07:16:54;4.93;;;2.53;;
56943;SDS011;42848;42.524;12.052;2022-12-11T07:19:21;3.80;;;2.38;;
56943;SDS011;42848;42.524;12.052;2022-12-11T07:21:46;3.25;;;2.30;;
56943;SDS011;42848;42.524;12.052;2022-12-11T07:24:12;6.20;;;3.00;;
56943;SDS011;42848;42.524;12.052;2022-12-11T07:26:38;5.55;;;3.08;;
56943;SDS011;42848;42.524;12.052;2022-12-11T07:29:03;4.18;;;2.25;;
56943;SDS011;42848;42.524;12.052;2022-12-11T07:31:29;8.88;;;2.30;;
56943;SDS011;42848;42.524;12.052;2022-12-11T07:33:59;4.68;;;2.22;;
56943;SDS011;42848;42.524;12.052;2022-12-11T07:36:27;4.95;;;2.60;;
56943;SDS011;42848;42.524;12.052;2022-12-11T07:38:53;3.95;;;2.25;;
56943;SDS011;42848;42.524;12.052;2022-12-11T07:41:20;4.32;;;2.40;;
56943;SDS011;42848;42.524;12.052;2022-12-11T07:43:47;4.28;;;2.03;;
56943;SDS011;42848;42.524;12.052;2022-12-11T07:46:16;4.30;;;2.40;;
56943;SDS011;42848;42.524;12.052;2022-12-11T07:48:45;5.05;;;2.60;;
56943;SDS011;42848;42.524;12.052;2022-12-11T07:51:14;3.30;;;1.90;;
56943;SDS011;42848;42.524;12.052;2022-12-11T07:53:41;4.70;;;2.10;;
56943;SDS011;42848;42.524;12.052;2022-12-11T07:56:07;3.65;;;2.50;;
56943;SDS011;42848;42.524;12.052;2022-12-11T07:58:33;4.85;;;2.80;;
56943;SDS011;42848;42.524;12.052;2022-12-11T08:00:59;3.45;;;2.30;;
56943;SDS011;42848;42.524;12.052;2022-12-11T08:03:25;3.40;;;1.90;;
56943;SDS011;42848;42.524;12.052;2022-12-11T08:05:51;2.75;;;1.90;;
56943;SDS011;42848;42.524;12.052;2022-12-11T08:08:17;2.88;;;1.42;;
56943;SDS011;42848;42.524;12.052;2022-12-11T08:10:44;8.88;;;4.72;;
56943;SDS011;42848;42.524;12.052;2022-12-11T08:13:10;5.30;;;2.60;;
56943;SDS011;42848;42.524;12.052;2022-12-11T08:15:36;3.75;;;2.03;;
56943;SDS011;42848;42.524;12.052;2022-12-11T08:18:02;3.30;;;2.28;;
56943;SDS011;42848;42.524;12.052;2022-12-11T08:20:28;3.38;;;2.08;;
56943;SDS011;42848;42.524;12.052;2022-12-11T08:22:55;3.35;;;1.98;;
56943;SDS011;42848;42.524;12.052;2022-12-11T08:25:21;5.88;;;2.30;;
56943;SDS011;42848;42.524;12.052;2022-12-11T08:27:48;6.63;;;2.72;;
56943;SDS011;42848;42.524;12.052;2022-12-11T08:30:13;7.25;;;3.72;;
56943;SDS011;42848;42.524;12.052;2022-12-11T08:32:39;11.48;;;6.18;;
56943;SDS011;42848;42.524;12.052;2022-12-11T08:35:05;8.07;;;3.30;;
56943;SDS011;42848;42.524;12.052;2022-12-11T08:37:32;5.25;;;2.53;;
56943;SDS011;42848;42.524;12.052;2022-12-11T08:39:58;8.93;;;3.60;;
56943;SDS011;42848;42.524;12.052;2022-12-11T08:42:24;9.95;;;3.83;;
56943;SDS011;42848;42.524;12.052;2022-12-11T08:44:50;7.05;;;2.90;;
56943;SDS011;42848;42.524;12.052;2022-12-11T08:47:16;6.03;;;2.53;;
56943;SDS011;42848;42.524;12.052;2022-12-11T08:49:42;9.25;;;3.13;;
56943;SDS011;42848;42.524;12.052;2022-12-11T08:52:08;12.50;;;4.82;;
56943;SDS011;42848;42.524;12.052;2022-12-11T08:54:35;8.05;;;3.50;;
56943;SDS011;42848;42.524;12.052;2022-12-11T08:57:01;8.77;;;3.10;;
56943;SDS011;42848;42.524;12.052;2022-12-11T08:59:27;13.13;;;3.25;;
56943;SDS011;42848;42.524;12.052;2022-12-11T09:01:53;10.32;;;3.50;;
56943;SDS011;42848;42.524;12.052;2022-12-11T09:04:20;8.48;;;3.28;;
56943;SDS011;42848;42.524;12.052;2022-12-11T09:06:46;10.07;;;3.55;;
56943;SDS011;42848;42.524;12.052;2022-12-11T09:09:12;10.25;;;3.30;;
56943;SDS011;42848;42.524;12.052;2022-12-11T09:11:38;10.20;;;3.10;;
56943;SDS011;42848;42.524;12.052;2022-12-11T09:14:05;9.52;;;3.38;;
56943;SDS011;42848;42.524;12.052;2022-12-11T09:16:31;8.65;;;3.40;;
56943;SDS011;42848;42.524;12.052;2022-12-11T09:18:57;9.70;;;3.70;;
56943;SDS011;42848;42.524;12.052;2022-12-11T09:21:25;7.63;;;2.70;;
56943;SDS011;42848;42.524;12.052;2022-12-11T09:23:53;8.07;;;3.05;;
56943;SDS011;42848;42.524;12.052;2022-12-11T09:26:20;9.68;;;2.72;;
56943;SDS011;42848;42.524;12.052;2022-12-11T09:28:46;10.32;;;2.90;;
56943;SDS011;42848;42.524;12.052;2022-12-11T09:31:14;7.97;;;2.88;;
56943;SDS011;42848;42.524;12.052;2022-12-11T09:33:42;8.90;;;2.60;;
56943;SDS011;42848;42.524;12.052;2022-12-11T09:36:08;8.82;;;2.33;;
56943;SDS011;42848;42.524;12.052;2022-12-11T09:38:35;9.70;;;2.72;;
56943;SDS011;42848;42.524;12.052;2022-12-11T09:41:01;9.52;;;3.30;;
56943;SDS011;42848;42.524;12.052;2022-12-11T09:43:46;13.00;;;3.45;;
56943;SDS011;42848;42.524;12.052;2022-12-11T09:46:22;10.70;;;3.00;;
56943;SDS011;42848;42.524;12.052;2022-12-11T09:48:48;9.95;;;2.60;;
56943;SDS011;42848;42.524;12.052;2022-12-11T09:54:08;11.73;;;3.00;;
56943;SDS011;42848;42.524;12.052;2022-12-11T09:56:51;9.65;;;3.20;;
56943;SDS011;42848;42.524;12.052;2022-12-11T10:02:02;11.50;;;3.58;;
56943;SDS011;42848;42.524;12.052;2022-12-11T10:05:13;10.57;;;3.15;;
56943;SDS011;42848;42.524;12.052;2022-12-11T10:08:04;10.82;;;3.20;;
56943;SDS011;42848;42.524;12.052;2022-12-11T10:13:22;9.70;;;3.00;;
56943;SDS011;42848;42.524;12.052;2022-12-11T10:15:59;21.67;;;9.20;;
56943;SDS011;42848;42.524;12.052;2022-12-11T10:18:33;15.32;;;4.07;;
56943;SDS011;42848;42.524;12.052;2022-12-11T10:21:00;13.48;;;3.85;;
56943;SDS011;42848;42.524;12.052;2022-12-11T10:23:37;15.73;;;3.80;;
56943;SDS011;42848;42.524;12.052;2022-12-11T10:26:13;13.30;;;3.00;;
56943;SDS011;42848;42.524;12.052;2022-12-11T10:28:42;13.90;;;3.17;;
56943;SDS011;42848;42.524;12.052;2022-12-11T10:31:17;13.27;;;4.18;;
56943;SDS011;42848;42.524;12.052;2022-12-11T10:34:10;26.92;;;12.38;;
56943;SDS011;42848;42.524;12.052;2022-12-11T10:36:38;11.93;;;3.28;;
56943;SDS011;42848;42.524;12.052;2022-12-11T10:39:15;9.32;;;3.45;;
56943;SDS011;42848;42.524;12.052;2022-12-11T10:41:46;11.35;;;3.00;;
56943;SDS011;42848;42.524;12.052;2022-12-11T10:44:20;10.35;;;2.80;;
56943;SDS011;42848;42.524;12.052;2022-12-11T10:49:52;9.68;;;2.75;;
56943;SDS011;42848;42.524;12.052;2022-12-11T10:53:04;10.50;;;2.80;;
56943;SDS011;42848;42.524;12.052;2022-12-11T10:55:21;13.57;;;5.47;;
56943;SDS011;42848;42.524;12.052;2022-12-11T10:57:58;10.98;;;3.40;;
56943;SDS011;42848;42.524;12.052;2022-12-11T11:03:22;8.52;;;2.33;;
56943;SDS011;42848;42.524;12.052;2022-12-11T11:06:00;10.30;;;2.90;;
56943;SDS011;42848;42.524;12.052;2022-12-11T11:08:38;7.85;;;2.45;;
56943;SDS011;42848;42.524;12.052;2022-12-11T11:11:05;8.70;;;2.63;;
56943;SDS011;42848;42.524;12.052;2022-12-11T11:13:43;8.88;;;3.35;;
56943;SDS011;42848;42.524;12.052;2022-12-11T11:16:14;11.10;;;2.60;;
56943;SDS011;42848;42.524;12.052;2022-12-11T11:18:47;11.30;;;2.55;;
56943;SDS011;42848;42.524;12.052;2022-12-11T11:21:19;8.88;;;3.83;;
56943;SDS011;42848;42.524;12.052;2022-12-11T11:23:47;12.02;;;3.80;;
56943;SDS011;42848;42.524;12.052;2022-12-11T11:26:14;12.68;;;4.70;;
56943;SDS011;42848;42.524;12.052;2022-12-11T11:28:40;26.55;;;10.88;;
56943;SDS011;42848;42.524;12.052;2022-12-11T11:31:12;9.32;;;3.17;;
56943;SDS011;42848;42.524;12.052;2022-12-11T11:33:57;10.07;;;2.40;;
56943;SDS011;42848;42.524;12.052;2022-12-11T11:36:28;8.48;;;3.15;;
56943;SDS011;42848;42.524;12.052;2022-12-11T11:41:48;8.55;;;2.60;;
56943;SDS011;42848;42.524;12.052;2022-12-11T11:45:08;9.93;;;3.45;;
56943;SDS011;42848;42.524;12.052;2022-12-11T11:47:50;10.27;;;2.40;;
56943;SDS011;42848;42.524;12.052;2022-12-11T11:50:37;11.20;;;3.10;;
56943;SDS011;42848;42.524;12.052;2022-12-11T11:53:51;6.97;;;2.75;;
56943;SDS011;42848;42.524;12.052;2022-12-11T11:56:04;10.10;;;3.10;;
56943;SDS011;42848;42.524;12.052;2022-12-11T11:58:42;8.30;;;2.97;;
56943;SDS011;42848;42.524;12.052;2022-12-11T12:01:23;27.88;;;3.75;;
56943;SDS011;42848;42.524;12.052;2022-12-11T12:03:49;10.18;;;2.70;;
56943;SDS011;42848;42.524;12.052;2022-12-11T12:09:09;12.30;;;3.03;;
56943;SDS011;42848;42.524;12.052;2022-12-11T12:17:32;8.25;;;1.80;;
56943;SDS011;42848;42.524;12.052;2022-12-11T12:20:36;5.40;;;1.70;;
56943;SDS011;42848;42.524;12.052;2022-12-11T12:23:24;4.78;;;1.90;;
56943;SDS011;42848;42.524;12.052;2022-12-11T12:26:08;8.57;;;1.90;;
56943;SDS011;42848;42.524;12.052;2022-12-11T12:28:43;6.95;;;1.80;;
56943;SDS011;42848;42.524;12.052;2022-12-11T12:37:09;7.05;;;2.50;;
56943;SDS011;42848;42.524;12.052;2022-12-11T12:39:42;7.32;;;2.08;;
56943;SDS011;42848;42.524;12.052;2022-12-11T12:47:36;8.10;;;2.35;;
56943;SDS011;42848;42.524;12.052;2022-12-11T12:50:05;8.52;;;2.97;;
56943;SDS011;42848;42.524;12.052;2022-12-11T12:52:37;7.68;;;2.58;;
56943;SDS011;42848;42.524;12.052;2022-12-11T12:55:26;8.43;;;2.30;;
56943;SDS011;42848;42.524;12.052;2022-12-11T12:58:05;10.15;;;3.00;;
56943;SDS011;42848;42.524;12.052;2022-12-11T13:00:48;6.18;;;2.35;;
56943;SDS011;42848;42.524;12.052;2022-12-11T13:03:15;8.13;;;2.55;;
56943;SDS011;42848;42.524;12.052;2022-12-11T13:06:04;5.70;;;2.30;;
56943;SDS011;42848;42.524;12.052;2022-12-11T13:08:41;8.15;;;2.88;;
56943;SDS011;42848;42.524;12.052;2022-12-11T13:11:11;7.78;;;2.42;;
56943;SDS011;42848;42.524;12.052;2022-12-11T13:13:40;7.32;;;2.50;;
56943;SDS011;42848;42.524;12.052;2022-12-11T13:16:33;6.47;;;2.28;;
56943;SDS011;42848;42.524;12.052;2022-12-11T13:21:57;9.77;;;2.70;;
56943;SDS011;42848;42.524;12.052;2022-12-11T13:24:29;8.30;;;2.33;;
56943;SDS011;42848;42.524;12.052;2022-12-11T13:27:06;6.68;;;2.30;;
56943;SDS011;42848;42.524;12.052;2022-12-11T13:29:39;8.25;;;2.20;;
56943;SDS011;42848;42.524;12.052;2022-12-11T13:34:32;7.25;;;2.40;;
56943;SDS011;42848;42.524;12.052;2022-12-11T13:37:00;11.85;;;3.80;;
56943;SDS011;42848;42.524;12.052;2022-12-11T13:39:29;10.77;;;3.60;;
56943;SDS011;42848;42.524;12.052;2022-12-11T13:42:06;18.80;;;6.13;;
56943;SDS011;42848;42.524;12.052;2022-12-11T13:44:45;15.40;;;5.38;;
56943;SDS011;42848;42.524;12.052;2022-12-11T13:47:13;10.57;;;4.18;;
56943;SDS011;42848;42.524;12.052;2022-12-11T13:49:42;10.32;;;2.97;;
56943;SDS011;42848;42.524;12.052;2022-12-11T13:52:17;9.15;;;3.97;;
56943;SDS011;42848;42.524;12.052;2022-12-11T13:54:53;8.13;;;2.65;;
56943;SDS011;42848;42.524;12.052;2022-12-11T13:57:23;7.07;;;2.50;;
56943;SDS011;42848;42.524;12.052;2022-12-11T13:59:51;8.65;;;2.55;;
56943;SDS011;42848;42.524;12.052;2022-12-11T14:05:01;6.95;;;2.70;;
56943;SDS011;42848;42.524;12.052;2022-12-11T14:07:31;8.18;;;2.70;;
56943;SDS011;42848;42.524;12.052;2022-12-11T14:10:07;7.32;;;2.60;;
56943;SDS011;42848;42.524;12.052;2022-12-11T14:15:20;7.65;;;2.63;;
56943;SDS011;42848;42.524;12.052;2022-12-11T14:17:46;10.85;;;2.95;;
56943;SDS011;42848;42.524;12.052;2022-12-11T14:20:21;6.97;;;2.30;;
56943;SDS011;42848;42.524;12.052;2022-12-11T14:22:48;11.25;;;2.80;;
56943;SDS011;42848;42.524;12.052;2022-12-11T14:25:19;7.95;;;2.75;;
56943;SDS011;42848;42.524;12.052;2022-12-11T14:27:51;8.82;;;2.95;;
56943;SDS011;42848;42.524;12.052;2022-12-11T14:30:20;11.50;;;3.08;;
56943;SDS011;42848;42.524;12.052;2022-12-11T14:32:50;11.15;;;3.70;;
56943;SDS011;42848;42.524;12.052;2022-12-11T14:35:24;9.00;;;3.42;;
56943;SDS011;42848;42.524;12.052;2022-12-11T14:37:51;7.95;;;3.20;;
56943;SDS011;42848;42.524;12.052;2022-12-11T14:40:18;12.98;;;3.25;;
56943;SDS011;42848;42.524;12.052;2022-12-11T14:42:54;8.32;;;2.78;;
56943;SDS011;42848;42.524;12.052;2022-12-11T14:45:32;8.85;;;2.50;;
56943;SDS011;42848;42.524;12.052;2022-12-11T14:48:00;12.65;;;3.40;;
56943;SDS011;42848;42.524;12.052;2022-12-11T14:50:46;8.32;;;2.78;;
56943;SDS011;42848;42.524;12.052;2022-12-11T14:53:21;7.35;;;2.70;;
56943;SDS011;42848;42.524;12.052;2022-12-11T14:55:50;9.13;;;3.67;;
56943;SDS011;42848;42.524;12.052;2022-12-11T15:01:04;6.13;;;3.00;;
56943;SDS011;42848;42.524;12.052;2022-12-11T15:06:23;13.07;;;4.38;;
56943;SDS011;42848;42.524;12.052;2022-12-11T15:08:50;9.43;;;4.00;;
56943;SDS011;42848;42.524;12.052;2022-12-11T15:11:16;12.93;;;4.70;;
56943;SDS011;42848;42.524;12.052;2022-12-11T15:16:18;9.23;;;4.13;;
56943;SDS011;42848;42.524;12.052;2022-12-11T15:18:49;9.32;;;4.20;;
56943;SDS011;42848;42.524;12.052;2022-12-11T15:21:16;9.70;;;4.05;;
56943;SDS011;42848;42.524;12.052;2022-12-11T15:26:09;11.63;;;5.53;;
56943;SDS011;42848;42.524;12.052;2022-12-11T15:28:35;14.90;;;6.47;;
56943;SDS011;42848;42.524;12.052;2022-12-11T15:31:04;16.52;;;9.73;;
56943;SDS011;42848;42.524;12.052;2022-12-11T15:33:50;18.13;;;10.48;;
56943;SDS011;42848;42.524;12.052;2022-12-11T15:36:24;19.88;;;10.32;;
56943;SDS011;42848;42.524;12.052;2022-12-11T15:38:55;23.38;;;10.93;;
56943;SDS011;42848;42.524;12.052;2022-12-11T15:41:22;16.30;;;9.65;;
56943;SDS011;42848;42.524;12.052;2022-12-11T15:43:53;15.13;;;8.80;;
56943;SDS011;42848;42.524;12.052;2022-12-11T15:46:20;9.70;;;4.97;;
56943;SDS011;42848;42.524;12.052;2022-12-11T15:48:47;8.52;;;2.95;;
56943;SDS011;42848;42.524;12.052;2022-12-11T15:51:14;7.43;;;3.58;;
56943;SDS011;42848;42.524;12.052;2022-12-11T15:53:40;8.68;;;2.95;;
56943;SDS011;42848;42.524;12.052;2022-12-11T15:56:08;7.85;;;2.72;;
56943;SDS011;42848;42.524;12.052;2022-12-11T15:58:38;12.43;;;3.70;;
56943;SDS011;42848;42.524;12.052;2022-12-11T16:01:03;9.23;;;4.78;;
56943;SDS011;42848;42.524;12.052;2022-12-11T16:03:29;11.85;;;5.43;;
56943;SDS011;42848;42.524;12.052;2022-12-11T16:05:55;12.57;;;5.63;;
56943;SDS011;42848;42.524;12.052;2022-12-11T16:08:21;12.15;;;6.00;;